Time;durP1;ratioP1;P1;durP2;ratioP2;P2;SDS_P1;SDS_P2;PMS_P1;PMS_P2;Temp;Humidity;BMP_temperature;BMP_pressure;BME280_temperature;BME280_humidity;BME280_pressure;Samples;Min_cycle;Max_cycle;Signal;HPM_P1;HPM_P2
2023/12/25 00:08:48;;;;;;;3.50;2.10;;;;;;;11.48;100.00;97611.35;680916;1263;139255;-82
2023/12/25 00:23:53;;;;;;;6.20;1.80;;;;;;;11.56;100.00;97633.26;676440;1260;139458;-82
2023/12/25 00:38:57;;;;;;;5.90;1.80;;;;;;;11.51;100.00;97642.61;675995;1261;139732;-81
2023/12/25 00:54:01;;;;;;;7.20;2.50;;;;;;;11.26;100.00;97667.63;681453;1268;139243;-82
2023/12/25 01:09:04;;;;;;;5.90;2.10;;;;;;;10.97;100.00;97685.95;676746;1263;139595;-81
2023/12/25 01:24:07;;;;;;;12.00;3.10;;;;;;;10.59;99.96;97723.70;679344;1264;140211;-82
2023/12/25 01:39:12;;;;;;;11.10;2.90;;;;;;;10.41;99.31;97751.27;681721;1260;139892;-82
2023/12/25 01:54:16;;;;;;;14.20;3.20;;;;;;;10.40;98.47;97773.84;681283;1262;139625;-82
2023/12/25 02:09:19;;;;;;;15.00;3.50;;;;;;;10.39;97.46;97796.63;678100;1259;140094;-82
2023/12/25 02:24:28;;;;;;;13.40;3.40;;;;;;;10.48;97.03;97808.48;680517;1262;139226;-81
2023/12/25 02:39:32;;;;;;;16.80;4.30;;;;;;;10.35;96.49;97820.19;677207;1260;139509;-82
2023/12/25 02:54:35;;;;;;;13.50;3.10;;;;;;;10.38;95.31;97831.89;680258;1262;139768;-82
2023/12/25 03:09:39;;;;;;;19.90;4.30;;;;;;;10.43;94.03;97846.52;675995;1263;139802;-83
2023/12/25 03:24:42;;;;;;;11.00;2.50;;;;;;;10.35;93.56;97874.38;680867;1261;141697;-80
2023/12/25 03:39:45;;;;;;;6.90;2.50;;;;;;;10.24;92.82;97886.52;680457;1262;139325;-82
2023/12/25 03:54:49;;;;;;;8.70;1.60;;;;;;;10.28;92.00;97915.27;681261;1259;139315;-82
2023/12/25 04:09:52;;;;;;;8.30;2.30;;;;;;;10.45;90.59;97927.27;679946;1259;139560;-82
2023/12/25 04:24:56;;;;;;;5.70;1.90;;;;;;;10.44;90.38;97938.83;680113;1262;139780;-81
2023/12/25 04:40:00;;;;;;;13.90;2.80;;;;;;;10.32;91.36;97936.59;676140;1262;140103;-80
2023/12/25 04:55:05;;;;;;;8.40;2.10;;;;;;;10.21;91.68;97935.58;674802;1262;139538;-81
2023/12/25 05:10:09;;;;;;;6.20;1.90;;;;;;;10.16;92.07;97954.84;674413;1262;140425;-81
2023/12/25 05:25:12;;;;;;;5.80;1.70;;;;;;;10.16;93.45;97959.11;679420;1262;140238;-82
2023/12/25 05:40:17;;;;;;;9.60;2.10;;;;;;;9.87;96.48;97960.75;679246;1262;139980;-81
2023/12/25 05:55:20;;;;;;;11.40;2.50;;;;;;;9.82;97.13;97970.65;678828;1259;138685;-82
2023/12/25 06:10:24;;;;;;;8.10;2.60;;;;;;;9.97;96.26;97983.98;678159;1262;138834;-82
2023/12/25 06:25:27;;;;;;;5.20;2.10;;;;;;;9.82;95.73;97989.23;682279;1264;139654;-81
2023/12/25 06:40:32;;;;;;;5.20;2.00;;;;;;;9.78;96.41;97993.71;678813;1259;138805;-80
2023/12/25 06:55:36;;;;;;;5.70;2.00;;;;;;;9.84;97.07;97994.05;679860;1259;138635;-81
2023/12/25 07:10:40;;;;;;;8.70;4.70;;;;;;;9.87;97.67;97999.32;675518;1263;139394;-81
2023/12/25 07:25:44;;;;;;;6.30;3.40;;;;;;;10.01;96.50;98001.87;680277;1260;139116;-81
2023/12/25 07:40:49;;;;;;;9.10;3.20;;;;;;;10.08;95.73;98001.24;678862;1259;138620;-81
2023/12/25 07:55:52;;;;;;;5.50;2.40;;;;;;;10.17;95.44;98001.64;679497;1262;138917;-82
2023/12/25 08:10:56;;;;;;;10.10;3.10;;;;;;;10.26;95.51;98007.61;679317;1262;139183;-80
2023/12/25 08:26:00;;;;;;;11.60;5.20;;;;;;;10.23;95.62;98036.21;679812;1262;140285;-82
2023/12/25 08:41:06;;;;;;;53.30;26.00;;;;;;;10.25;94.56;98054.65;678705;1261;139060;-82
2023/12/25 08:56:10;;;;;;;9.60;5.10;;;;;;;10.26;93.64;98083.86;677948;1262;139215;-80
2023/12/25 09:11:14;;;;;;;7.20;3.60;;;;;;;10.36;93.28;98100.52;679026;1275;140450;-80
2023/12/25 09:26:20;;;;;;;61.30;14.70;;;;;;;10.17;93.25;98114.08;679327;1262;139053;-81
2023/12/25 09:41:32;;;;;;;15.50;6.90;;;;;;;10.34;93.52;98110.66;681270;1262;139453;-81
2023/12/25 09:56:40;;;;;;;41.90;12.90;;;;;;;10.31;93.33;98117.01;680251;1262;139645;-81
2023/12/25 10:11:44;;;;;;;11.80;5.40;;;;;;;10.35;91.19;98126.31;680973;1274;139282;-81
2023/12/25 10:26:49;;;;;;;13.10;5.50;;;;;;;10.71;87.75;98138.92;682153;1262;139065;-80
2023/12/25 10:41:55;;;;;;;37.10;19.80;;;;;;;11.19;86.59;98134.77;681856;1263;139522;-82
2023/12/25 10:57:03;;;;;;;34.30;16.80;;;;;;;12.09;81.78;98140.60;679066;1263;139632;-81
2023/12/25 11:12:07;;;;;;;17.70;6.10;;;;;;;11.98;79.01;98141.71;680216;1262;140204;-83
2023/12/25 11:27:16;;;;;;;13.80;6.00;;;;;;;12.14;74.98;98161.38;679941;1262;140192;-82
2023/12/25 11:42:19;;;;;;;12.10;5.50;;;;;;;10.97;74.76;98174.73;681478;1262;139577;-83
2023/12/25 11:57:24;;;;;;;8.50;3.20;;;;;;;10.31;76.91;98186.13;677252;1260;139777;-81
2023/12/25 12:12:28;;;;;;;11.70;4.60;;;;;;;9.87;77.83;98171.75;676655;1266;139440;-81
2023/12/25 12:27:31;;;;;;;7.70;3.50;;;;;;;9.90;75.81;98188.92;677626;1262;139764;-81
2023/12/25 12:42:37;;;;;;;12.30;3.30;;;;;;;9.73;72.41;98198.42;677042;1262;138670;-82
2023/12/25 12:57:41;;;;;;;18.80;8.40;;;;;;;9.54;70.75;98246.51;677626;1265;139624;-81
2023/12/25 13:12:45;;;;;;;20.50;7.50;;;;;;;9.45;71.56;98272.55;676742;1273;138670;-82
2023/12/25 13:27:48;;;;;;;19.10;8.90;;;;;;;9.22;71.60;98297.27;674938;1264;139018;-81
2023/12/25 13:42:52;;;;;;;13.00;5.10;;;;;;;9.26;70.75;98334.34;680543;1262;139275;-82
2023/12/25 13:57:55;;;;;;;85.20;27.50;;;;;;;9.31;69.63;98363.81;679019;1262;139758;-81
2023/12/25 14:12:59;;;;;;;87.20;29.40;;;;;;;9.15;70.50;98382.48;681801;1263;139479;-81
2023/12/25 14:28:03;;;;;;;23.80;8.90;;;;;;;8.89;71.12;98399.15;678645;1262;139218;-82
2023/12/25 14:43:08;;;;;;;13.70;5.00;;;;;;;8.66;70.85;98426.92;679945;1263;139508;-81
2023/12/25 14:58:12;;;;;;;15.30;5.90;;;;;;;8.58;69.94;98453.96;673544;1268;139447;-81
2023/12/25 15:13:28;;;;;;;41.00;12.40;;;;;;;8.54;69.17;98475.94;676510;1262;139509;-80
2023/12/25 15:28:34;;;;;;;35.50;12.40;;;;;;;8.48;69.52;98507.52;679661;1262;139375;-82
2023/12/25 15:43:40;;;;;;;19.00;5.70;;;;;;;8.38;69.98;98526.73;679144;1263;140294;-80
2023/12/25 15:58:44;;;;;;;25.50;9.70;;;;;;;8.41;69.98;98542.36;681089;1263;139482;-83
2023/12/25 16:13:48;;;;;;;34.40;9.90;;;;;;;8.35;69.86;98566.16;681338;1263;139884;-81
2023/12/25 16:28:51;;;;;;;25.00;7.40;;;;;;;8.18;69.49;98586.23;681539;1263;139048;-81
2023/12/25 16:43:55;;;;;;;58.20;17.90;;;;;;;8.03;69.55;98599.88;679668;1264;140092;-81
2023/12/25 16:59:01;;;;;;;33.00;9.70;;;;;;;7.97;69.43;98644.59;680955;1264;139385;-81
2023/12/25 17:14:06;;;;;;;24.70;11.50;;;;;;;8.01;69.60;98680.18;678148;1263;139046;-82
2023/12/25 17:29:09;;;;;;;27.10;7.80;;;;;;;8.03;69.46;98700.52;676524;1264;139626;-81
2023/12/25 17:44:13;;;;;;;25.80;10.30;;;;;;;7.92;70.00;98720.27;680913;1261;138958;-79
2023/12/25 17:59:18;;;;;;;116.00;42.50;;;;;;;7.88;69.90;98752.36;677848;1260;140231;-83
2023/12/25 18:14:21;;;;;;;56.90;16.90;;;;;;;7.78;70.42;98762.80;680310;1262;139426;-82
2023/12/25 18:29:27;;;;;;;55.00;20.40;;;;;;;7.63;70.95;98783.77;677421;1258;154681;-80
2023/12/25 18:44:31;;;;;;;46.20;15.60;;;;;;;7.53;71.32;98808.23;677458;1264;139124;-82
2023/12/25 18:59:38;;;;;;;62.40;17.50;;;;;;;7.57;71.75;98821.37;681076;1261;139361;-80
2023/12/25 19:14:44;;;;;;;107.10;31.00;;;;;;;7.50;72.00;98841.96;678020;1262;139060;-83
2023/12/25 19:29:48;;;;;;;127.30;34.60;;;;;;;7.53;72.09;98856.73;679414;1262;139893;-81
2023/12/25 19:44:54;;;;;;;33.30;9.80;;;;;;;7.48;71.94;98894.33;679955;1259;139862;-81
2023/12/25 19:59:58;;;;;;;56.50;21.30;;;;;;;7.44;72.26;98905.68;681439;1260;140418;-82
2023/12/25 20:15:03;;;;;;;50.20;15.70;;;;;;;7.50;72.01;98918.48;679980;1269;139541;-82
2023/12/25 20:30:07;;;;;;;50.50;15.90;;;;;;;7.37;72.83;98937.11;680468;1259;139509;-81
2023/12/25 20:45:12;;;;;;;43.70;13.20;;;;;;;7.37;72.85;98946.86;681743;1264;139380;-81
2023/12/25 21:00:16;;;;;;;28.10;8.50;;;;;;;7.27;73.03;98973.73;680335;1259;139255;-81
2023/12/25 21:15:22;;;;;;;47.20;14.20;;;;;;;7.12;73.76;98987.11;680446;1262;199047;-82
2023/12/25 21:30:26;;;;;;;19.10;6.40;;;;;;;7.15;74.14;99003.31;680830;1259;140144;-81
2023/12/25 21:45:30;;;;;;;24.70;8.00;;;;;;;7.03;74.59;99016.98;680734;1264;140899;-80
2023/12/25 22:00:34;;;;;;;28.60;7.30;;;;;;;7.10;74.61;99025.01;680765;1259;139004;-81
2023/12/25 22:15:38;;;;;;;20.70;5.30;;;;;;;7.10;74.43;99040.17;677444;1262;139739;-81
2023/12/25 22:30:43;;;;;;;29.50;5.80;;;;;;;7.04;74.49;99041.23;681388;1262;140985;-82
2023/12/25 22:45:46;;;;;;;23.50;6.50;;;;;;;6.90;74.84;99064.80;679758;1274;140488;-82
2023/12/25 23:00:50;;;;;;;27.10;5.20;;;;;;;6.80;75.04;99080.95;681839;1263;139620;-82
2023/12/25 23:15:54;;;;;;;23.70;6.40;;;;;;;6.70;75.38;99097.34;681449;1262;140729;-82
2023/12/25 23:30:59;;;;;;;28.50;8.30;;;;;;;6.50;75.34;99104.91;677474;1259;139588;-82
2023/12/25 23:46:03;;;;;;;18.60;6.10;;;;;;;6.25;76.20;99113.00;678019;1262;139822;-82
